Time;durP1;ratioP1;P1;durP2;ratioP2;P2;SDS_P1;SDS_P2;PMS_P1;PMS_P2;Temp;Humidity;BMP_temperature;BMP_pressure;BME280_temperature;BME280_humidity;BME280_pressure;Samples;Min_cycle;Max_cycle;Signal;HPM_P1;HPM_P2
2021/10/24 00:00:39;;;;;;;6.50;4.05;;;;;;;1.05;100.00;96101.97;4994304;28;20025;-59
2021/10/24 00:03:04;;;;;;;6.22;4.22;;;;;;;0.94;100.00;96101.59;4994463;28;20037;-59
2021/10/24 00:05:30;;;;;;;6.72;4.35;;;;;;;0.91;100.00;96107.25;5011591;28;20021;-60
2021/10/24 00:07:58;;;;;;;7.45;4.25;;;;;;;0.90;100.00;96106.44;4994592;28;20029;-58
2021/10/24 00:10:23;;;;;;;9.60;4.45;;;;;;;0.88;100.00;96116.34;5010652;28;20026;-57
2021/10/24 00:12:52;;;;;;;8.88;4.05;;;;;;;0.85;100.00;96109.59;4994596;28;20029;-58
2021/10/24 00:15:17;;;;;;;7.45;4.38;;;;;;;0.81;100.00;96112.78;5011907;28;20026;-60
2021/10/24 00:17:42;;;;;;;7.63;4.35;;;;;;;0.78;100.00;96115.78;5011605;28;20022;-59
2021/10/24 00:20:11;;;;;;;6.72;4.05;;;;;;;0.74;100.00;96107.38;5012073;28;20030;-58
2021/10/24 00:22:36;;;;;;;6.60;4.35;;;;;;;0.78;100.00;96110.50;5011960;28;20030;-58
2021/10/24 00:25:13;;;;;;;7.82;4.32;;;;;;;0.88;100.00;96118.16;5012229;28;20040;-58
2021/10/24 00:27:42;;;;;;;9.48;4.60;;;;;;;0.92;100.00;96122.06;4993772;28;20061;-59
2021/10/24 00:30:07;;;;;;;6.90;4.25;;;;;;;0.91;100.00;96123.91;4979759;28;20036;-58
2021/10/24 00:32:33;;;;;;;8.23;4.55;;;;;;;0.90;100.00;96129.34;5011248;28;20018;-61
2021/10/24 00:35:03;;;;;;;10.23;5.25;;;;;;;0.91;100.00;96126.53;5011839;28;20484;-58
2021/10/24 00:37:29;;;;;;;9.10;4.45;;;;;;;0.86;100.00;96131.50;5010609;28;20029;-58
2021/10/24 00:39:54;;;;;;;6.72;4.47;;;;;;;0.77;100.00;96128.16;4977877;28;20087;-55
2021/10/24 00:42:20;;;;;;;9.98;4.55;;;;;;;0.72;100.00;96122.56;4994066;28;20439;-55
2021/10/24 00:44:48;;;;;;;9.55;4.68;;;;;;;0.67;100.00;96134.66;4994339;28;20117;-54
2021/10/24 00:47:13;;;;;;;9.40;5.50;;;;;;;0.62;100.00;96137.81;5011478;28;20070;-55
2021/10/24 00:49:39;;;;;;;9.32;5.60;;;;;;;0.63;100.00;96128.91;4993570;28;20057;-53
2021/10/24 00:52:05;;;;;;;13.70;5.68;;;;;;;0.64;100.00;96127.91;4994038;28;20033;-58
2021/10/24 00:54:32;;;;;;;11.38;4.57;;;;;;;0.59;100.00;96130.28;5011440;28;20060;-57
2021/10/24 00:56:57;;;;;;;10.13;5.32;;;;;;;0.60;100.00;96133.72;5011342;28;20036;-58
2021/10/24 00:59:24;;;;;;;9.38;5.35;;;;;;;0.63;100.00;96134.19;5011034;28;20030;-58
2021/10/24 01:01:50;;;;;;;7.75;4.93;;;;;;;0.62;100.00;96132.53;5010767;28;20034;-57
2021/10/24 01:04:19;;;;;;;10.02;4.90;;;;;;;0.65;100.00;96118.19;5011609;28;20110;-58
2021/10/24 01:06:55;;;;;;;7.95;4.88;;;;;;;0.67;100.00;96111.75;4993837;28;20026;-58
2021/10/24 01:09:23;;;;;;;9.45;5.10;;;;;;;0.64;100.00;96121.81;4994111;28;20374;-57
2021/10/24 01:11:50;;;;;;;7.70;5.00;;;;;;;0.58;100.00;96121.53;4993252;28;20028;-59
2021/10/24 01:14:15;;;;;;;9.43;5.22;;;;;;;0.53;100.00;96121.22;4993531;28;20051;-58
2021/10/24 01:16:42;;;;;;;10.15;5.25;;;;;;;0.46;100.00;96125.59;4993166;28;20034;-58
2021/10/24 01:19:09;;;;;;;8.38;5.22;;;;;;;0.38;100.00;96123.00;4992572;28;20026;-59
2021/10/24 01:21:35;;;;;;;7.68;4.90;;;;;;;0.25;100.00;96131.50;5009703;28;20092;-57
2021/10/24 01:24:01;;;;;;;10.38;5.00;;;;;;;0.16;100.00;96123.81;4977356;28;20037;-56
2021/10/24 01:26:29;;;;;;;9.02;5.07;;;;;;;0.08;100.00;96129.13;5010871;28;20026;-59
2021/10/24 01:28:59;;;;;;;7.85;4.95;;;;;;;-0.01;100.00;96123.09;5010690;28;20024;-55
2021/10/24 01:31:24;;;;;;;8.57;4.88;;;;;;;-0.12;100.00;96120.84;4995359;28;20160;-56
2021/10/24 01:33:53;;;;;;;8.35;5.13;;;;;;;-0.21;100.00;96122.72;5009267;28;20137;-55
2021/10/24 01:36:18;;;;;;;9.30;5.32;;;;;;;-0.30;100.00;96127.22;4993208;28;20026;-54
2021/10/24 01:38:45;;;;;;;8.48;5.38;;;;;;;-0.34;100.00;96127.72;5010619;28;20026;-54
2021/10/24 01:41:14;;;;;;;6.22;4.45;;;;;;;-0.38;100.00;96129.88;5010411;28;20030;-53
2021/10/24 01:43:47;;;;;;;8.10;4.97;;;;;;;-0.39;100.00;96114.25;5009706;28;20447;-53
2021/10/24 01:46:13;;;;;;;7.60;4.72;;;;;;;-0.42;100.00;96123.31;4976535;28;20116;-58
2021/10/24 01:48:40;;;;;;;9.48;5.22;;;;;;;-0.44;100.00;96119.19;5009268;28;20042;-58
2021/10/24 01:51:05;;;;;;;7.88;4.72;;;;;;;-0.47;100.00;96119.53;4993041;28;20018;-57
2021/10/24 01:53:33;;;;;;;9.20;5.07;;;;;;;-0.47;100.00;96114.28;4993389;28;20556;-59
2021/10/24 01:55:58;;;;;;;9.93;5.32;;;;;;;-0.46;100.00;96103.56;5010334;28;20105;-57
2021/10/24 01:58:24;;;;;;;7.40;4.95;;;;;;;-0.46;100.00;96111.47;4992630;28;20437;-57
2021/10/24 02:00:50;;;;;;;8.85;5.30;;;;;;;-0.47;100.00;96109.03;5010155;28;20022;-57
2021/10/24 02:03:16;;;;;;;9.48;5.50;;;;;;;-0.39;100.00;96119.53;4993049;28;20065;-57
2021/10/24 02:05:42;;;;;;;7.88;5.10;;;;;;;-0.33;100.00;96113.56;4992717;28;20396;-57
2021/10/24 02:08:11;;;;;;;6.22;4.72;;;;;;;-0.36;100.00;96106.81;4992718;28;20036;-60
2021/10/24 02:10:37;;;;;;;8.32;5.25;;;;;;;-0.45;100.00;96101.75;5010217;28;20359;-57
2021/10/24 02:13:04;;;;;;;8.80;4.97;;;;;;;-0.44;100.00;96093.69;4993298;28;20026;-56
2021/10/24 02:15:30;;;;;;;7.80;4.88;;;;;;;-0.44;100.00;96101.59;5010397;28;20084;-53
2021/10/24 02:17:58;;;;;;;11.10;5.05;;;;;;;-0.47;100.00;96101.13;5009086;28;20034;-53
2021/10/24 02:20:24;;;;;;;8.38;5.30;;;;;;;-0.54;100.00;96093.09;5010262;28;20017;-53
2021/10/24 02:22:49;;;;;;;7.60;5.03;;;;;;;-0.62;100.00;96101.03;4992979;28;20085;-52
2021/10/24 02:25:19;;;;;;;7.82;4.47;;;;;;;-0.70;100.00;96108.94;4976824;28;20060;-52
2021/10/24 02:27:47;;;;;;;7.95;4.85;;;;;;;-0.81;100.00;96104.88;4992552;28;20030;-52
2021/10/24 02:30:13;;;;;;;8.02;4.47;;;;;;;-0.91;100.00;96106.88;5013245;28;20109;-54
2021/10/24 02:32:39;;;;;;;10.70;5.18;;;;;;;-1.03;100.00;96102.97;5012696;28;20121;-53
2021/10/24 02:35:12;;;;;;;7.65;4.38;;;;;;;-1.15;100.00;96120.88;4996696;28;20141;-57
2021/10/24 02:37:42;;;;;;;9.65;4.57;;;;;;;-1.22;100.00;96112.84;4995380;28;20034;-56
2021/10/24 02:40:08;;;;;;;7.68;4.85;;;;;;;-1.22;100.00;96117.28;5013716;28;20045;-57
2021/10/24 02:42:34;;;;;;;8.90;5.65;;;;;;;-1.16;100.00;96106.09;4979756;28;20120;-57
2021/10/24 02:45:02;;;;;;;12.57;5.55;;;;;;;-1.03;100.00;96105.59;5009517;23;20109;-62
2021/10/24 02:47:30;;;;;;;9.52;5.75;;;;;;;-0.98;100.00;96104.09;4995491;28;20116;-56
2021/10/24 02:49:59;;;;;;;8.85;5.30;;;;;;;-0.91;100.00;96105.06;5011958;28;20022;-56
2021/10/24 02:52:27;;;;;;;8.60;5.40;;;;;;;-0.93;100.00;96111.47;4996077;28;20022;-60
2021/10/24 02:54:54;;;;;;;10.32;6.03;;;;;;;-0.98;100.00;96111.16;4996392;28;20476;-60
2021/10/24 02:57:19;;;;;;;9.50;5.90;;;;;;;-1.01;100.00;96108.88;4995667;28;20025;-58
2021/10/24 02:59:45;;;;;;;11.82;5.93;;;;;;;-1.07;100.00;96110.38;4996117;28;20092;-57
2021/10/24 03:02:10;;;;;;;9.27;5.20;;;;;;;-1.10;100.00;96113.31;5012610;28;20534;-57
2021/10/24 03:04:35;;;;;;;10.90;5.95;;;;;;;-1.11;100.00;96109.03;4995814;28;20049;-57
2021/10/24 03:07:01;;;;;;;8.75;5.78;;;;;;;-1.12;100.00;96101.31;5013016;28;20025;-57
2021/10/24 03:09:29;;;;;;;9.73;6.03;;;;;;;-1.10;100.00;96105.41;5012823;28;20032;-56
2021/10/24 03:11:57;;;;;;;9.80;6.05;;;;;;;-1.06;100.00;96106.75;4992055;28;20025;-55
2021/10/24 03:14:23;;;;;;;9.05;5.63;;;;;;;-1.04;100.00;96102.13;5013533;28;20025;-54
2021/10/24 03:16:48;;;;;;;8.30;5.43;;;;;;;-1.09;100.00;96103.63;4994855;28;20547;-57
2021/10/24 03:19:14;;;;;;;8.82;5.60;;;;;;;-1.08;100.00;96105.28;5012613;28;20400;-60
2021/10/24 03:21:42;;;;;;;10.25;5.70;;;;;;;-1.09;100.00;96095.72;4995344;28;20018;-57
2021/10/24 03:24:08;;;;;;;9.10;5.85;;;;;;;-1.11;100.00;96092.44;5012939;28;20072;-61
2021/10/24 03:26:39;;;;;;;7.90;5.30;;;;;;;-1.13;100.00;96090.00;4992080;28;20034;-55
2021/10/24 03:29:05;;;;;;;7.85;5.18;;;;;;;-1.14;100.00;96100.69;4991860;28;20034;-58
2021/10/24 03:31:31;;;;;;;9.52;5.82;;;;;;;-1.18;100.00;96102.84;5007513;28;20029;-60
2021/10/24 03:33:56;;;;;;;10.20;5.40;;;;;;;-1.25;100.00;96102.66;4986475;28;20022;-58
2021/10/24 03:36:30;;;;;;;10.50;6.20;;;;;;;-1.35;100.00;96096.75;4995210;28;20037;-57
2021/10/24 03:38:56;;;;;;;8.07;5.13;;;;;;;-1.45;100.00;96098.75;5012401;28;20037;-57
2021/10/24 03:41:21;;;;;;;9.45;5.40;;;;;;;-1.48;100.00;96106.97;4994170;28;20030;-61
2021/10/24 03:43:46;;;;;;;10.27;6.07;;;;;;;-1.44;100.00;96110.06;5012284;28;20033;-66
2021/10/24 03:46:12;;;;;;;10.30;5.47;;;;;;;-1.40;100.00;96106.97;4978260;28;20523;-57
2021/10/24 03:48:37;;;;;;;9.15;5.65;;;;;;;-1.44;100.00;96105.63;4994625;28;20022;-52
2021/10/24 03:51:03;;;;;;;9.00;5.45;;;;;;;-1.49;100.00;96102.69;5012377;28;20021;-57
2021/10/24 03:53:31;;;;;;;9.18;6.25;;;;;;;-1.49;100.00;96105.31;5012205;28;20021;-57
2021/10/24 03:56:06;;;;;;;9.57;6.10;;;;;;;-1.49;100.00;96097.44;5025830;28;20040;-58
2021/10/24 03:58:31;;;;;;;14.90;8.25;;;;;;;-1.52;100.00;96103.84;5011883;28;20392;-61
2021/10/24 04:00:57;;;;;;;10.18;6.13;;;;;;;-1.56;100.00;96104.34;5011848;28;20030;-57
2021/10/24 04:03:25;;;;;;;9.00;5.30;;;;;;;-1.58;100.00;96107.13;4977981;28;20026;-59
2021/10/24 04:05:58;;;;;;;10.80;5.95;;;;;;;-1.48;100.00;96102.53;4991877;28;20045;-58
2021/10/24 04:08:23;;;;;;;;;;;;;;;-1.46;100.00;96095.28;4992065;28;20026;-60
2021/10/24 04:10:48;;;;;;;9.50;5.87;;;;;;;-1.44;100.00;96097.75;4978607;28;19916;-57
2021/10/24 04:13:14;;;;;;;9.63;6.22;;;;;;;-1.46;100.00;96087.41;4991408;28;20281;-60
2021/10/24 04:15:51;;;;;;;7.93;5.45;;;;;;;-1.48;100.00;96093.81;5011677;28;20535;-58
2021/10/24 04:18:16;;;;;;;10.63;6.05;;;;;;;-1.51;100.00;96097.63;5011440;28;20432;-61
2021/10/24 04:20:50;;;;;;;9.07;5.85;;;;;;;-1.51;100.00;96102.88;5012032;28;20030;-58
2021/10/24 04:23:16;;;;;;;9.82;6.18;;;;;;;-1.54;100.00;96103.16;5012027;28;20025;-57
2021/10/24 04:25:47;;;;;;;11.68;6.05;;;;;;;-1.56;100.00;96089.38;4984048;28;20029;-58
2021/10/24 04:28:13;;;;;;;11.48;5.85;;;;;;;-1.56;100.00;96086.75;4990684;28;20026;-54
2021/10/24 04:30:39;;;;;;;9.35;5.70;;;;;;;-1.61;100.00;96098.75;4977615;28;20025;-59
2021/10/24 04:33:07;;;;;;;12.57;6.00;;;;;;;-1.69;100.00;96096.94;4994006;28;20068;-55
2021/10/24 04:35:48;;;;;;;9.98;6.32;;;;;;;-1.71;100.00;96101.56;4990947;28;20037;-56
2021/10/24 04:38:13;;;;;;;9.15;5.72;;;;;;;-1.71;100.00;96088.41;5010699;28;20423;-58
2021/10/24 04:40:38;;;;;;;9.52;6.43;;;;;;;-1.70;100.00;96089.25;4977760;28;20030;-62
2021/10/24 04:43:07;;;;;;;8.20;5.85;;;;;;;-1.69;100.00;96093.50;5011809;28;20022;-57
2021/10/24 04:45:34;;;;;;;10.20;5.85;;;;;;;-1.68;100.00;96090.72;5010872;28;20100;-59
2021/10/24 04:48:00;;;;;;;11.32;6.43;;;;;;;-1.70;100.00;96086.59;5010680;28;20026;-60
2021/10/24 04:50:25;;;;;;;8.25;5.55;;;;;;;-1.67;100.00;96087.09;4990652;28;20472;-57
2021/10/24 04:52:54;;;;;;;9.52;5.68;;;;;;;-1.69;100.00;96078.56;4990522;28;20026;-57
2021/10/24 04:55:19;;;;;;;17.10;6.15;;;;;;;-1.74;100.00;96067.72;5005011;28;20025;-60
2021/10/24 04:57:44;;;;;;;10.20;6.00;;;;;;;-1.78;100.00;96080.38;5011185;28;20022;-53
2021/10/24 05:00:13;;;;;;;12.55;6.10;;;;;;;-1.75;100.00;96064.25;4990722;28;20073;-53
2021/10/24 05:02:39;;;;;;;10.80;6.35;;;;;;;-1.75;100.00;96074.78;4998233;28;20504;-58
2021/10/24 05:05:07;;;;;;;9.68;5.95;;;;;;;-1.71;100.00;96063.97;4994209;28;20499;-57
2021/10/24 05:07:33;;;;;;;11.32;6.03;;;;;;;-1.73;100.00;96069.38;4993590;28;20026;-56
2021/10/24 05:10:02;;;;;;;8.98;5.78;;;;;;;-1.79;100.00;96062.97;5011188;28;20509;-56
2021/10/24 05:12:33;;;;;;;10.63;6.20;;;;;;;-1.86;100.00;96072.47;5011215;28;20104;-52
2021/10/24 05:14:58;;;;;;;8.98;5.68;;;;;;;-1.92;100.00;96069.69;5010942;28;20025;-54
2021/10/24 05:17:24;;;;;;;11.23;6.35;;;;;;;-1.96;100.00;96076.25;4992948;28;20025;-53
2021/10/24 05:19:49;;;;;;;8.90;5.57;;;;;;;-2.01;100.00;96068.03;4991481;28;20738;-53
2021/10/24 05:22:20;;;;;;;10.85;6.00;;;;;;;-2.01;100.00;96073.28;5008778;28;20056;-56
2021/10/24 05:24:45;;;;;;;9.00;6.03;;;;;;;-2.02;100.00;96064.59;4994004;28;20045;-54
2021/10/24 05:27:14;;;;;;;8.82;6.00;;;;;;;-2.04;100.00;96069.19;4990174;28;20807;-55
2021/10/24 05:29:39;;;;;;;10.75;6.68;;;;;;;-1.99;100.00;96066.06;5009122;28;20022;-57
2021/10/24 05:32:07;;;;;;;9.65;6.40;;;;;;;-1.94;100.00;96067.25;4989866;28;20082;-57
2021/10/24 05:34:33;;;;;;;11.18;6.53;;;;;;;-1.92;100.00;96073.16;5009587;28;20369;-59
2021/10/24 05:36:58;;;;;;;9.88;6.13;;;;;;;-1.91;100.00;96064.28;4990579;28;20029;-57
2021/10/24 05:39:24;;;;;;;11.52;6.57;;;;;;;-1.85;100.00;96068.84;4993579;28;20025;-54
2021/10/24 05:41:52;;;;;;;13.30;6.20;;;;;;;-1.84;100.00;96069.72;4993018;28;20030;-57
2021/10/24 05:44:19;;;;;;;13.68;6.97;;;;;;;-1.83;100.00;96064.28;4993682;28;20030;-54
2021/10/24 05:46:48;;;;;;;13.48;7.13;;;;;;;-1.85;100.00;96058.34;5011035;28;20500;-52
2021/10/24 05:49:15;;;;;;;10.98;6.55;;;;;;;-1.87;100.00;96056.88;4977644;28;20022;-52
2021/10/24 05:51:43;;;;;;;11.15;6.50;;;;;;;-1.90;100.00;96057.22;4989851;28;20516;-51
2021/10/24 05:54:09;;;;;;;10.68;6.45;;;;;;;-1.86;100.00;96066.41;4993546;28;20405;-54
2021/10/24 05:56:36;;;;;;;9.40;6.40;;;;;;;-1.90;100.00;96065.09;4977536;28;20065;-55
2021/10/24 05:59:07;;;;;;;9.57;6.40;;;;;;;-1.94;100.00;96064.63;4950384;28;20382;-56
2021/10/24 06:01:33;;;;;;;10.23;6.38;;;;;;;-1.99;100.00;96071.31;5009831;28;20022;-53
2021/10/24 06:03:59;;;;;;;11.02;6.68;;;;;;;-2.03;100.00;96062.16;4994790;28;20105;-56
2021/10/24 06:06:24;;;;;;;13.32;6.80;;;;;;;-2.07;100.00;96061.63;5014812;28;20076;-50
2021/10/24 06:08:50;;;;;;;10.00;6.15;;;;;;;-2.11;100.00;96069.00;4997210;28;20049;-50
2021/10/24 06:13:44;;;;;;;10.63;7.18;;;;;;;-2.13;100.00;96072.78;5007858;28;20104;-52
2021/10/24 06:16:10;;;;;;;9.27;5.93;;;;;;;-2.13;100.00;96068.38;4990777;28;20439;-53
2021/10/24 06:18:36;;;;;;;11.15;6.63;;;;;;;-2.08;100.00;96062.63;4990120;28;20022;-53
2021/10/24 06:21:03;;;;;;;12.35;7.57;;;;;;;-2.07;100.00;96062.44;4971509;28;20025;-56
2021/10/24 06:23:30;;;;;;;10.43;6.38;;;;;;;-2.03;100.00;96065.59;4978293;28;20132;-50
2021/10/24 06:25:56;;;;;;;13.18;7.53;;;;;;;-2.02;100.00;96072.47;4992741;28;20029;-53
2021/10/24 06:28:21;;;;;;;13.05;7.22;;;;;;;-1.99;100.00;96072.16;5007379;28;20396;-52
2021/10/24 06:30:46;;;;;;;12.05;7.18;;;;;;;-1.93;100.00;96068.88;5004317;28;20034;-59
2021/10/24 06:33:12;;;;;;;12.57;7.47;;;;;;;-1.88;100.00;96071.00;5000575;28;20030;-55
2021/10/24 06:35:38;;;;;;;13.57;6.53;;;;;;;-1.82;100.00;96070.38;4990194;28;20036;-54
2021/10/24 06:38:03;;;;;;;13.13;7.38;;;;;;;-1.63;100.00;96067.41;5010576;28;20388;-60
2021/10/24 06:40:28;;;;;;;12.70;7.13;;;;;;;-1.49;100.00;96065.91;5003728;28;20025;-53
2021/10/24 06:42:54;;;;;;;10.52;6.80;;;;;;;-1.40;100.00;96057.03;5012952;28;20030;-54
2021/10/24 06:45:19;;;;;;;11.63;6.78;;;;;;;-1.27;100.00;96064.41;5004631;28;20522;-51
2021/10/24 06:47:47;;;;;;;13.00;7.22;;;;;;;-1.14;100.00;96056.81;5014169;28;20032;-51
2021/10/24 06:50:13;;;;;;;13.23;7.75;;;;;;;-1.01;100.00;96059.72;4992933;28;20026;-59
2021/10/24 06:52:39;;;;;;;13.38;7.70;;;;;;;-0.89;100.00;96055.72;5012894;28;20048;-53
2021/10/24 06:55:06;;;;;;;11.55;7.60;;;;;;;-0.76;100.00;96055.22;4988716;28;20029;-51
2021/10/24 06:57:33;;;;;;;25.63;9.18;;;;;;;-0.60;100.00;96057.75;4981543;28;20059;-50
2021/10/24 06:59:59;;;;;;;21.75;9.30;;;;;;;-0.44;100.00;96058.66;4967869;28;20081;-54
2021/10/24 07:02:24;;;;;;;28.27;9.07;;;;;;;-0.31;100.00;96053.69;5009527;28;20033;-51
2021/10/24 07:04:49;;;;;;;54.13;10.05;;;;;;;-0.16;100.00;96056.38;5009298;28;20013;-51
2021/10/24 07:07:20;;;;;;;38.97;8.77;;;;;;;-0.02;100.00;96051.16;5007880;28;20456;-56
2021/10/24 07:09:46;;;;;;;12.73;8.07;;;;;;;0.14;100.00;96049.44;5009827;28;20022;-62
2021/10/24 07:12:11;;;;;;;35.10;8.63;;;;;;;0.25;100.00;96047.19;4990205;28;20105;-52
2021/10/24 07:14:38;;;;;;;14.65;8.65;;;;;;;0.40;100.00;96043.75;4983827;28;20867;-57
2021/10/24 07:17:03;;;;;;;19.73;8.55;;;;;;;0.51;100.00;96043.34;5008770;28;20029;-55
2021/10/24 07:19:29;;;;;;;38.58;8.85;;;;;;;0.62;100.00;96039.44;5012642;28;20036;-56
2021/10/24 07:21:54;;;;;;;32.97;9.43;;;;;;;0.69;100.00;96037.75;5010789;28;20104;-53
2021/10/24 07:24:19;;;;;;;44.10;9.73;;;;;;;0.74;100.00;96038.81;5007680;28;20037;-56
2021/10/24 07:26:45;;;;;;;28.65;8.40;;;;;;;0.79;100.00;96043.56;4992402;28;20097;-60
2021/10/24 07:29:10;;;;;;;13.45;8.52;;;;;;;0.84;100.00;96042.03;5011358;28;20080;-57
2021/10/24 07:31:38;;;;;;;44.88;9.52;;;;;;;0.89;100.00;96033.59;4993322;28;20053;-57
2021/10/24 07:34:03;;;;;;;37.03;9.45;;;;;;;0.92;100.00;96033.22;5009704;28;20057;-57
2021/10/24 07:36:28;;;;;;;22.38;8.10;;;;;;;0.97;100.00;96030.00;4992535;28;20451;-59
2021/10/24 07:38:54;;;;;;;14.80;8.23;;;;;;;1.01;100.00;96031.31;5011029;28;20025;-57
2021/10/24 07:41:19;;;;;;;25.85;8.23;;;;;;;1.06;100.00;96032.38;5009004;28;20034;-56
2021/10/24 07:43:44;;;;;;;41.88;9.05;;;;;;;1.11;100.00;96027.41;5010463;28;20032;-57
2021/10/24 07:46:11;;;;;;;17.15;7.60;;;;;;;1.17;100.00;96034.56;5009359;28;20049;-58
2021/10/24 07:48:36;;;;;;;24.05;8.73;;;;;;;1.24;100.00;96029.38;4995352;28;20037;-59
2021/10/24 07:51:02;;;;;;;29.35;8.80;;;;;;;1.30;100.00;96019.91;4994705;28;20026;-60
2021/10/24 07:53:29;;;;;;;16.70;7.55;;;;;;;1.34;100.00;96011.44;4995264;28;20026;-59
2021/10/24 07:55:56;;;;;;;46.47;8.15;;;;;;;1.35;100.00;96007.81;5012572;28;20026;-58
2021/10/24 07:58:23;;;;;;;51.60;7.93;;;;;;;1.36;100.00;96003.34;4994544;28;20079;-67
2021/10/24 08:00:49;;;;;;;64.18;8.50;;;;;;;1.39;100.00;95995.03;4988384;28;20404;-55
2021/10/24 08:03:18;;;;;;;76.07;9.02;;;;;;;1.40;100.00;95992.22;4988547;28;20049;-58
2021/10/24 08:05:43;;;;;;;69.00;8.80;;;;;;;1.39;100.00;95985.28;4993191;28;20486;-57
2021/10/24 08:08:09;;;;;;;50.95;8.48;;;;;;;1.44;100.00;95985.56;5000080;28;20033;-57
2021/10/24 08:10:34;;;;;;;60.28;7.82;;;;;;;1.52;100.00;95982.00;4989753;28;20876;-55
2021/10/24 08:13:00;;;;;;;54.78;7.88;;;;;;;1.61;100.00;95974.78;4990026;28;20026;-53
2021/10/24 08:15:25;;;;;;;71.38;9.25;;;;;;;1.66;100.00;95970.56;4976047;28;20032;-56
2021/10/24 08:17:51;;;;;;;13.32;7.90;;;;;;;1.74;100.00;95967.81;4990629;28;20124;-55
2021/10/24 08:20:17;;;;;;;33.30;7.85;;;;;;;1.89;100.00;95966.94;5001986;28;20029;-62
2021/10/24 08:22:44;;;;;;;23.40;7.88;;;;;;;1.97;100.00;95958.88;4974423;28;20037;-57
2021/10/24 08:25:10;;;;;;;47.83;8.60;;;;;;;2.01;100.00;95955.66;4991636;28;20393;-54
2021/10/24 08:27:36;;;;;;;12.93;7.55;;;;;;;2.10;100.00;95951.06;4988717;28;20650;-55
2021/10/24 08:30:04;;;;;;;15.52;8.05;;;;;;;2.23;100.00;95943.25;4967517;28;20108;-56
2021/10/24 08:32:32;;;;;;;26.05;8.30;;;;;;;2.35;100.00;95948.81;4991326;28;20033;-50
2021/10/24 08:35:01;;;;;;;33.55;8.15;;;;;;;2.45;100.00;95936.06;5000716;28;20512;-54
2021/10/24 08:37:27;;;;;;;17.15;8.10;;;;;;;2.49;100.00;95933.84;4989099;28;20054;-56
2021/10/24 08:39:53;;;;;;;22.77;8.40;;;;;;;2.56;100.00;95935.53;4999005;28;20753;-56
2021/10/24 08:42:31;;;;;;;17.25;8.43;;;;;;;2.60;100.00;95928.88;4990943;28;20105;-56
2021/10/24 08:44:57;;;;;;;36.78;9.70;;;;;;;2.65;100.00;95933.56;4990575;28;20032;-53
2021/10/24 08:47:25;;;;;;;13.77;8.70;;;;;;;2.70;100.00;95930.31;4976822;28;20507;-56
2021/10/24 08:49:51;;;;;;;15.73;8.40;;;;;;;2.75;100.00;95930.56;5011990;28;20477;-56
2021/10/24 08:52:21;;;;;;;19.15;9.57;;;;;;;2.86;100.00;95924.72;4993681;28;20068;-62
2021/10/24 08:54:46;;;;;;;25.52;9.48;;;;;;;2.89;100.00;95919.84;4994634;28;20079;-62
2021/10/24 08:57:12;;;;;;;63.05;10.10;;;;;;;2.98;100.00;95920.50;4992121;28;20030;-57
2021/10/24 08:59:38;;;;;;;19.15;9.63;;;;;;;3.00;100.00;95920.31;4992083;28;20470;-55
2021/10/24 09:02:04;;;;;;;15.80;9.40;;;;;;;3.08;100.00;95912.19;4974112;28;20105;-55
2021/10/24 09:04:29;;;;;;;14.43;9.15;;;;;;;3.16;100.00;95923.44;4992316;28;20030;-65
2021/10/24 09:07:00;;;;;;;18.75;8.98;;;;;;;3.19;100.00;95916.94;4974402;28;20087;-53
2021/10/24 09:09:31;;;;;;;14.15;9.30;;;;;;;3.25;100.00;95918.75;4974683;28;20060;-54
2021/10/24 09:11:57;;;;;;;18.42;10.35;;;;;;;3.32;100.00;95914.31;4973776;28;20081;-52
2021/10/24 09:14:36;;;;;;;20.58;10.45;;;;;;;3.43;100.00;95910.28;4958614;28;20088;-58
2021/10/24 09:17:02;;;;;;;14.27;9.10;;;;;;;3.42;100.00;95913.94;4991857;28;20030;-57
2021/10/24 09:19:36;;;;;;;13.82;9.27;;;;;;;3.47;100.00;95911.50;4995128;28;20088;-60
2021/10/24 09:22:37;;;;;;;13.00;9.20;;;;;;;3.62;100.00;95908.69;5010856;28;20076;-61
2021/10/24 09:25:13;;;;;;;13.85;9.02;;;;;;;3.77;100.00;95904.00;4993520;28;20433;-57
2021/10/24 09:27:46;;;;;;;13.60;8.75;;;;;;;3.90;100.00;95901.38;4987356;28;20110;-58
2021/10/24 09:30:35;;;;;;;12.07;8.52;;;;;;;3.92;100.00;95904.66;4999650;28;20030;-54
2021/10/24 09:33:03;;;;;;;13.93;9.00;;;;;;;4.07;100.00;95913.22;4974901;28;20038;-55
2021/10/24 09:35:40;;;;;;;12.48;8.85;;;;;;;4.11;100.00;95908.31;4974281;28;20031;-53
2021/10/24 09:38:08;;;;;;;13.32;9.00;;;;;;;4.10;100.00;95912.00;4991518;28;20096;-57
2021/10/24 09:40:35;;;;;;;12.65;8.73;;;;;;;4.24;100.00;95912.81;4977488;28;20041;-56
2021/10/24 09:43:30;;;;;;;13.00;8.50;;;;;;;4.40;100.00;95900.97;4978330;28;20026;-60
2021/10/24 09:45:56;;;;;;;12.05;9.05;;;;;;;4.57;100.00;95910.94;4995488;28;20086;-58
2021/10/24 09:48:23;;;;;;;14.68;9.40;;;;;;;4.68;100.00;95911.34;4997367;28;20127;-55
2021/10/24 09:50:53;;;;;;;12.90;8.23;;;;;;;4.77;100.00;95907.41;4994300;28;20026;-59
2021/10/24 09:53:26;;;;;;;11.65;8.20;;;;;;;4.95;100.00;95904.91;4995429;28;20030;-58
2021/10/24 09:55:55;;;;;;;11.88;7.88;;;;;;;5.15;100.00;95908.31;4979872;28;20026;-59
2021/10/24 09:58:28;;;;;;;11.65;8.13;;;;;;;5.37;100.00;95914.16;4995446;28;20042;-55
2021/10/24 10:00:54;;;;;;;10.98;8.05;;;;;;;5.54;100.00;95909.16;4994633;28;20026;-58
2021/10/24 10:03:21;;;;;;;12.30;7.72;;;;;;;5.78;100.00;95915.56;4991207;28;20056;-59
2021/10/24 10:05:46;;;;;;;10.77;7.47;;;;;;;5.95;100.00;95911.38;5005472;28;20401;-61
2021/10/24 10:08:12;;;;;;;11.07;7.20;;;;;;;6.17;100.00;95908.34;4966519;28;20034;-58
2021/10/24 10:10:44;;;;;;;11.73;6.88;;;;;;;6.33;100.00;95911.28;4974536;28;20076;-55
2021/10/24 10:13:14;;;;;;;10.65;6.65;;;;;;;6.49;100.00;95909.91;5003989;28;20026;-54
2021/10/24 10:15:42;;;;;;;9.35;6.97;;;;;;;6.86;100.00;95909.97;4987723;28;20041;-51
2021/10/24 10:18:07;;;;;;;9.55;6.78;;;;;;;7.24;100.00;95902.56;4987729;28;20396;-59
2021/10/24 10:20:35;;;;;;;8.75;6.65;;;;;;;7.64;100.00;95898.56;5006691;28;20037;-59
2021/10/24 10:23:06;;;;;;;8.88;6.78;;;;;;;8.09;100.00;95882.94;4999552;28;20021;-59
2021/10/24 10:25:33;;;;;;;9.93;7.03;;;;;;;8.41;100.00;95873.59;4990367;28;20033;-59
2021/10/24 10:27:59;;;;;;;10.50;7.03;;;;;;;8.93;100.00;95865.66;4984142;28;20031;-58
2021/10/24 10:30:34;;;;;;;12.05;6.63;;;;;;;9.41;100.00;95850.31;4973833;28;20041;-57
2021/10/24 10:33:01;;;;;;;8.85;6.03;;;;;;;9.62;100.00;95852.31;4997456;28;20033;-58
2021/10/24 10:35:27;;;;;;;8.15;6.15;;;;;;;9.85;100.00;95843.34;4999979;28;20026;-55
2021/10/24 10:37:58;;;;;;;8.88;6.32;;;;;;;10.17;100.00;95833.72;4990376;28;20034;-56
2021/10/24 10:40:35;;;;;;;8.30;6.30;;;;;;;10.56;100.00;95816.94;4983703;28;20026;-56
2021/10/24 10:43:20;;;;;;;7.55;6.22;;;;;;;10.75;100.00;95807.56;4994109;28;20023;-61
2021/10/24 10:45:54;;;;;;;8.70;6.22;;;;;;;10.99;100.00;95790.16;4971483;28;20050;-57
2021/10/24 10:48:29;;;;;;;7.57;5.40;;;;;;;11.34;100.00;95775.53;4957600;28;20023;-55
2021/10/24 10:50:58;;;;;;;8.15;5.85;;;;;;;11.41;100.00;95759.25;5026554;23;20073;-60
2021/10/24 10:53:59;;;;;;;7.03;5.43;;;;;;;11.54;100.00;95730.13;4980886;28;20037;-61
2021/10/24 10:56:53;;;;;;;7.20;5.22;;;;;;;11.99;100.00;95677.09;4990676;28;20029;-61
2021/10/24 10:59:37;;;;;;;8.23;5.53;;;;;;;11.89;100.00;95626.84;4994517;28;20105;-61
2021/10/24 11:02:22;;;;;;;7.22;5.30;;;;;;;12.19;100.00;95562.53;5012182;28;20034;-61
2021/10/24 11:04:51;;;;;;;6.97;5.18;;;;;;;12.32;100.00;95501.34;5022184;28;20471;-61
2021/10/24 11:07:33;;;;;;;7.57;5.60;;;;;;;12.54;100.00;95456.25;5008808;28;20061;-61
2021/10/24 11:10:03;;;;;;;7.38;5.05;;;;;;;12.78;100.00;95446.56;5029363;28;20029;-61
2021/10/24 11:12:39;;;;;;;6.97;5.38;;;;;;;12.93;100.00;95464.59;5015231;28;20029;-61
2021/10/24 11:15:25;;;;;;;7.03;5.28;;;;;;;12.85;100.00;95502.75;5012441;28;20025;-61
2021/10/24 11:17:51;;;;;;;9.43;5.80;;;;;;;13.06;100.00;95523.19;5021714;28;20551;-61
2021/10/24 11:20:41;;;;;;;7.15;5.28;;;;;;;13.24;100.00;95566.78;5008045;28;20022;-61
2021/10/24 11:23:10;;;;;;;6.93;5.45;;;;;;;13.34;100.00;95596.38;4983332;28;20045;-60
2021/10/24 11:25:38;;;;;;;7.88;6.00;;;;;;;13.48;100.00;95623.56;5006201;28;20613;-59
2021/10/24 11:28:24;;;;;;;6.25;5.10;;;;;;;13.51;100.00;95669.56;5005932;28;20080;-61
2021/10/24 11:30:58;;;;;;;7.18;5.60;;;;;;;13.62;100.00;95683.84;4998134;28;20493;-61